Time;durP1;ratioP1;P1;durP2;ratioP2;P2;SDS_P1;SDS_P2;PMS_P1;PMS_P2;Temp;Humidity;BMP_temperature;BMP_pressure;BME280_temperature;BME280_humidity;BME280_pressure;Samples;Min_cycle;Max_cycle;Signal;HPM_P1;HPM_P2
2023/12/10 00:00:05;;;;;;;12.70;1.80;;;;;;;-145.69;60.21;52256.25;5095725;28;20708;-83
2023/12/10 00:02:32;;;;;;;7.43;1.37;;;;;;;-145.69;60.21;52266.16;5094435;28;20229;-82
2023/12/10 00:04:58;;;;;;;9.83;1.70;;;;;;;-145.69;60.24;52299.81;5095834;28;20198;-82
2023/12/10 00:07:25;;;;;;;15.83;2.63;;;;;;;-145.69;60.36;52250.31;5095058;28;20213;-83
2023/12/10 00:09:53;;;;;;;8.80;1.70;;;;;;;-145.69;60.11;52266.16;5096337;28;20206;-83
2023/12/10 00:12:19;;;;;;;14.13;1.70;;;;;;;-145.69;60.47;52262.19;5097425;28;20606;-83
2023/12/10 00:14:52;;;;;;;6.30;1.73;;;;;;;-145.69;60.02;52238.44;5095873;28;20789;-83
2023/12/10 00:17:18;;;;;;;15.13;2.07;;;;;;;-145.69;60.65;52278.03;5098460;28;20198;-83
2023/12/10 00:19:45;;;;;;;15.27;2.30;;;;;;;-145.69;61.06;52274.06;5114804;28;20229;-83
2023/12/10 00:22:13;;;;;;;16.77;1.93;;;;;;;-145.69;60.66;52250.31;5095601;28;20209;-82
2023/12/10 00:24:42;;;;;;;14.13;2.27;;;;;;;-145.69;60.31;52250.31;5094689;28;20263;-83
2023/12/10 00:27:10;;;;;;;10.10;2.30;;;;;;;-145.69;60.56;52262.19;5094460;28;20255;-82
2023/12/10 00:29:37;;;;;;;17.60;2.77;;;;;;;-145.69;60.00;52256.25;5094137;28;20724;-83
2023/12/10 00:32:04;;;;;;;13.40;1.87;;;;;;;-145.69;60.04;52270.13;5095313;28;20279;-82
2023/12/10 00:34:32;;;;;;;18.03;2.40;;;;;;;-145.69;60.11;52301.81;5094493;28;20202;-82
2023/12/10 00:36:59;;;;;;;11.77;2.10;;;;;;;-145.69;59.90;52272.09;5094389;28;20231;-82
2023/12/10 00:39:25;;;;;;;14.40;2.27;;;;;;;-145.69;61.08;52280.00;5094428;28;20226;-82
2023/12/10 00:41:52;;;;;;;19.53;2.70;;;;;;;-145.69;61.61;52291.91;5093818;28;20205;-83
2023/12/10 00:44:20;;;;;;;18.20;2.43;;;;;;;-145.69;61.56;52301.81;5093346;28;20655;-82
2023/12/10 00:46:46;;;;;;;20.73;2.88;;;;;;;-145.69;61.95;52278.03;5093407;28;20445;-82
2023/12/10 00:49:13;;;;;;;20.10;2.87;;;;;;;-145.69;61.54;52321.59;5112751;28;20216;-82
2023/12/10 00:51:39;;;;;;;24.13;2.83;;;;;;;-145.69;61.58;52293.88;5114041;28;20206;-82
2023/12/10 00:54:09;;;;;;;19.63;2.70;;;;;;;-145.69;61.62;52285.97;5114442;28;20205;-83
2023/12/10 00:56:38;;;;;;;23.03;2.93;;;;;;;-145.69;61.44;52289.91;5104015;28;20197;-83
2023/12/10 00:59:07;;;;;;;27.70;3.10;;;;;;;-145.69;60.85;52266.16;5093785;28;20229;-83
2023/12/10 01:01:35;;;;;;;14.07;2.23;;;;;;;-145.69;61.12;52270.13;5093673;28;20661;-82
2023/12/10 01:04:10;;;;;;;13.73;2.53;;;;;;;-145.69;61.38;52291.91;5074530;28;20211;-82
2023/12/10 01:06:36;;;;;;;29.87;3.77;;;;;;;-145.69;60.87;52289.91;5087619;28;20221;-82
2023/12/10 01:09:04;;;;;;;18.63;3.07;;;;;;;-145.69;60.71;52297.84;5093621;28;20687;-82
2023/12/10 01:11:30;;;;;;;23.93;2.97;;;;;;;-145.69;60.24;52309.72;5093172;28;20212;-82
2023/12/10 01:13:57;;;;;;;21.07;2.63;;;;;;;-145.69;60.11;52274.06;5093609;28;20241;-82
2023/12/10 01:16:23;;;;;;;22.00;2.77;;;;;;;-145.69;59.64;52317.66;5093156;28;20553;-82
2023/12/10 01:18:53;;;;;;;16.57;2.87;;;;;;;-145.69;59.66;52280.00;5092809;28;20233;-82
2023/12/10 01:21:19;;;;;;;20.90;2.63;;;;;;;-145.69;59.54;52285.97;5093259;28;20652;-82
2023/12/10 01:23:46;;;;;;;29.17;3.17;;;;;;;-145.69;59.91;52280.00;5093375;28;20289;-82
2023/12/10 01:26:15;;;;;;;19.60;3.20;;;;;;;-145.69;59.43;52252.28;5093288;28;20617;-82
2023/12/10 01:28:41;;;;;;;16.37;2.93;;;;;;;-145.69;58.98;52266.16;5093579;28;20225;-82
2023/12/10 01:31:08;;;;;;;25.57;3.20;;;;;;;-145.69;59.63;52293.88;5092817;28;20653;-82
2023/12/10 01:33:34;;;;;;;17.07;2.80;;;;;;;-145.69;59.03;52260.22;5093037;28;20206;-82
2023/12/10 01:36:02;;;;;;;15.13;2.83;;;;;;;-145.69;58.72;52254.28;5093262;28;20671;-82
2023/12/10 01:38:28;;;;;;;25.57;3.37;;;;;;;-145.69;59.04;52289.91;5092765;28;20221;-82
2023/12/10 01:40:55;;;;;;;18.33;2.27;;;;;;;-145.69;59.02;52301.81;5092620;28;20197;-82
2023/12/10 01:43:21;;;;;;;19.57;3.10;;;;;;;-145.69;58.48;52280.00;5092965;28;20232;-82
2023/12/10 01:45:53;;;;;;;17.57;3.00;;;;;;;-145.69;58.36;52289.91;5092799;28;20560;-82
2023/12/10 01:48:21;;;;;;;15.93;2.80;;;;;;;-145.69;58.08;52285.97;5101870;28;20207;-82
2023/12/10 01:50:53;;;;;;;17.20;2.53;;;;;;;-145.69;57.83;52258.22;5113157;28;20675;-83
2023/12/10 01:53:22;;;;;;;11.77;2.10;;;;;;;-145.69;58.60;52307.75;5113124;28;20197;-82
2023/12/10 01:55:48;;;;;;;18.80;2.30;;;;;;;-145.69;58.10;52274.06;5105179;28;20308;-82
2023/12/10 01:58:20;;;;;;;19.73;2.50;;;;;;;-145.69;57.61;52297.84;5097323;28;20194;-82
2023/12/10 02:00:47;;;;;;;18.97;3.50;;;;;;;-145.69;57.96;52297.84;5096790;28;20237;-81
2023/12/10 02:03:14;;;;;;;22.80;3.10;;;;;;;-145.69;58.43;52305.75;5096540;28;20198;-82
2023/12/10 02:05:41;;;;;;;15.30;2.50;;;;;;;-145.69;58.34;52270.13;5096730;28;20716;-82
2023/12/10 02:08:07;;;;;;;12.93;2.67;;;;;;;-145.69;58.24;52289.91;5097060;28;20202;-82
2023/12/10 02:10:35;;;;;;;16.50;2.37;;;;;;;-145.69;57.89;52278.03;5096316;28;20659;-82
2023/12/10 02:13:04;;;;;;;26.80;3.47;;;;;;;-145.69;58.04;52270.13;5096883;28;20317;-82
2023/12/10 02:15:32;;;;;;;22.30;2.90;;;;;;;-145.69;57.79;52297.84;5097015;28;20267;-82
2023/12/10 02:17:58;;;;;;;17.37;2.53;;;;;;;-145.69;56.85;52297.84;5102332;28;20189;-82
2023/12/10 02:20:25;;;;;;;13.30;2.73;;;;;;;-145.69;57.47;52301.81;5116828;28;20703;-82
2023/12/10 02:23:02;;;;;;;20.27;2.37;;;;;;;-145.69;57.35;52309.72;5117181;27;20212;-82
2023/12/10 02:25:36;;;;;;;12.80;1.97;;;;;;;-145.69;56.99;52264.16;5117139;28;20229;-82
2023/12/10 02:28:04;;;;;;;13.60;3.13;;;;;;;-145.69;57.84;52305.75;5096073;28;20693;-82
2023/12/10 02:30:33;;;;;;;12.57;2.60;;;;;;;-145.69;57.84;52274.06;5095972;28;20221;-82
2023/12/10 02:33:00;;;;;;;12.30;2.53;;;;;;;-145.69;57.56;52270.13;5096338;28;20292;-82
2023/12/10 02:35:27;;;;;;;13.67;2.00;;;;;;;-145.69;58.36;52280.00;5096223;28;20224;-82
2023/12/10 02:37:54;;;;;;;14.43;1.87;;;;;;;-145.69;59.55;52301.81;5096444;28;20573;-82
2023/12/10 02:40:20;;;;;;;14.53;1.90;;;;;;;-145.69;60.34;52313.69;5095830;28;20226;-83
2023/12/10 02:42:49;;;;;;;12.90;2.03;;;;;;;-145.69;60.84;52285.97;5096147;28;20289;-82
2023/12/10 02:45:16;;;;;;;14.13;2.13;;;;;;;-145.69;61.09;52297.84;5096148;28;20204;-82
2023/12/10 02:47:43;;;;;;;14.23;1.90;;;;;;;-145.69;61.18;52293.88;5095989;28;20198;-82
2023/12/10 02:50:11;;;;;;;12.50;2.33;;;;;;;-145.69;61.54;52299.81;5095881;28;20649;-82
2023/12/10 02:52:38;;;;;;;11.50;2.10;;;;;;;-145.69;61.92;52305.75;5095858;28;20247;-82
2023/12/10 02:55:05;;;;;;;23.20;2.40;;;;;;;-145.69;60.45;52270.13;5092686;28;20207;-82
2023/12/10 02:57:42;;;;;;;;;;;;;;;;;;;;;
2023/12/10 03:00:11;;;;;;;15.20;2.37;;;;;;;-145.69;61.69;52301.81;5095539;28;20229;-81
2023/12/10 03:02:38;;;;;;;19.27;2.63;;;;;;;-145.69;62.38;52291.91;5095286;28;20255;-82
2023/12/10 03:05:05;;;;;;;22.70;2.90;;;;;;;-145.69;63.06;52301.81;5094520;28;20229;-81
2023/12/10 03:07:32;;;;;;;25.50;2.80;;;;;;;-145.69;63.42;52325.56;5095798;28;20201;-82
2023/12/10 03:09:58;;;;;;;13.23;2.60;;;;;;;-145.69;63.22;52307.75;5095464;28;20597;-82
2023/12/10 03:12:26;;;;;;;15.87;2.83;;;;;;;-145.69;62.76;52345.38;5095052;28;20194;-82
2023/12/10 03:14:53;;;;;;;20.03;3.10;;;;;;;-145.69;62.94;52301.81;5094906;28;20676;-82
2023/12/10 03:17:21;;;;;;;23.63;2.87;;;;;;;-145.69;62.63;52307.75;5095702;28;20268;-82
2023/12/10 03:19:47;;;;;;;23.40;3.27;;;;;;;-145.69;62.49;52299.81;5095554;28;20225;-82
2023/12/10 03:22:17;;;;;;;30.90;4.63;;;;;;;-145.69;62.55;52272.09;5094896;28;20208;-82
2023/12/10 03:24:43;;;;;;;23.70;3.27;;;;;;;-145.69;62.67;52299.81;5095202;28;20213;-82
2023/12/10 03:27:10;;;;;;;14.13;2.37;;;;;;;-145.69;61.97;52307.75;5095240;28;20195;-82
2023/12/10 03:29:42;;;;;;;15.03;2.07;;;;;;;-145.69;61.99;52327.53;5095477;28;20203;-81
2023/12/10 03:32:08;;;;;;;23.57;3.43;;;;;;;-145.69;61.56;52293.88;5095760;28;20258;-82
2023/12/10 03:34:36;;;;;;;24.73;3.77;;;;;;;-145.69;61.38;52305.75;5095231;28;20202;-81
2023/12/10 03:37:03;;;;;;;15.47;2.27;;;;;;;-145.69;60.79;52331.50;5095285;28;20194;-82
2023/12/10 03:39:29;;;;;;;12.93;2.60;;;;;;;-145.69;60.67;52293.88;5095038;28;20229;-82
2023/12/10 03:41:56;;;;;;;24.10;3.20;;;;;;;-145.69;59.87;52349.31;5094846;28;20194;-81
2023/12/10 03:44:24;;;;;;;16.77;2.70;;;;;;;-145.69;59.76;52307.75;5095592;28;20241;-82
2023/12/10 03:46:53;;;;;;;12.63;2.93;;;;;;;-145.69;59.59;52313.69;5095249;28;20283;-81
2023/12/10 03:49:20;;;;;;;15.43;2.17;;;;;;;-145.69;58.81;52329.53;5095430;28;20229;-81
2023/12/10 03:51:47;;;;;;;18.77;2.50;;;;;;;-145.69;59.36;52287.94;5095125;28;20194;-81
2023/12/10 03:54:16;;;;;;;14.30;2.37;;;;;;;-145.69;58.61;52297.84;5095029;28;20202;-82
2023/12/10 03:56:46;;;;;;;16.23;3.20;;;;;;;-145.69;58.23;52329.53;5094546;28;20246;-81
2023/12/10 03:59:13;;;;;;;13.43;2.47;;;;;;;-145.69;57.87;52289.91;5093736;28;20210;-81
2023/12/10 04:01:41;;;;;;;22.17;3.50;;;;;;;-145.69;57.88;52276.06;5094835;28;20194;-81
2023/12/10 04:04:08;;;;;;;16.53;2.47;;;;;;;-145.69;57.74;52283.97;5094879;28;20237;-81
2023/12/10 04:06:40;;;;;;;20.83;2.93;;;;;;;-145.69;57.54;52278.03;5094933;28;20236;-81
2023/12/10 04:09:09;;;;;;;15.90;2.73;;;;;;;-145.69;58.06;52291.91;5094857;28;20222;-81
2023/12/10 04:11:39;;;;;;;17.17;2.47;;;;;;;-145.69;57.63;52289.91;5094503;28;20194;-81
2023/12/10 04:14:08;;;;;;;17.77;2.67;;;;;;;-145.69;57.65;52317.66;5094199;28;20230;-81
2023/12/10 04:16:37;;;;;;;17.93;2.53;;;;;;;-145.69;57.86;52309.72;5094430;28;20202;-82
2023/12/10 04:19:04;;;;;;;23.73;3.17;;;;;;;-145.69;57.30;52280.00;5093765;28;20236;-82
2023/12/10 04:21:31;;;;;;;14.97;2.30;;;;;;;-145.69;56.96;52289.91;5093945;28;20229;-82
2023/12/10 04:23:57;;;;;;;15.27;2.40;;;;;;;-145.69;57.47;52301.81;5093957;28;20736;-82
2023/12/10 04:26:28;;;;;;;16.20;2.27;;;;;;;-145.69;57.36;52282.00;5094689;28;20201;-82
2023/12/10 04:28:54;;;;;;;26.13;3.03;;;;;;;-145.69;57.28;52274.06;5093957;28;20208;-82
2023/12/10 04:31:21;;;;;;;16.27;2.73;;;;;;;-145.69;57.09;52309.72;5094270;28;20202;-82
2023/12/10 04:33:50;;;;;;;16.93;2.30;;;;;;;-145.69;57.12;52305.75;5094041;28;20202;-82
2023/12/10 04:36:16;;;;;;;16.13;2.40;;;;;;;-145.69;56.84;52309.72;5094219;28;20236;-82
2023/12/10 04:38:43;;;;;;;15.13;2.50;;;;;;;-145.69;57.13;52315.66;5094094;28;20201;-80
2023/12/10 04:41:10;;;;;;;17.43;2.37;;;;;;;-145.69;56.28;52299.81;5093630;28;20648;-81
2023/12/10 04:43:37;;;;;;;13.67;2.40;;;;;;;-145.69;56.47;52280.00;5093424;28;20289;-81
2023/12/10 04:46:05;;;;;;;16.87;2.13;;;;;;;-145.69;56.72;52293.88;5093749;28;20214;-81
2023/12/10 04:48:34;;;;;;;17.30;2.80;;;;;;;-145.69;56.55;52303.78;5090099;28;20649;-81
2023/12/10 04:51:00;;;;;;;13.07;2.43;;;;;;;-145.69;56.12;52329.53;5093914;28;20239;-81
2023/12/10 04:53:27;;;;;;;17.07;2.10;;;;;;;-145.69;55.69;52282.00;5093318;28;20281;-81
2023/12/10 04:55:53;;;;;;;12.83;2.40;;;;;;;-145.69;56.36;52297.84;5093735;28;20634;-81
2023/12/10 04:58:20;;;;;;;18.50;2.40;;;;;;;-145.69;55.34;52321.59;5093330;28;20195;-81
2023/12/10 05:00:52;;;;;;;12.40;1.73;;;;;;;-145.69;55.41;52260.22;5093146;28;20592;-81
2023/12/10 05:03:20;;;;;;;16.73;3.13;;;;;;;-145.69;55.42;52289.91;5093055;28;20201;-81
2023/12/10 05:05:47;;;;;;;12.90;1.93;;;;;;;-145.69;55.11;52297.84;5092976;28;20198;-81
2023/12/10 05:08:15;;;;;;;18.93;2.23;;;;;;;-145.69;54.36;52285.97;5093520;28;20206;-82
2023/12/10 05:10:41;;;;;;;11.73;2.20;;;;;;;-145.69;54.78;52278.03;5093236;28;20204;-81
2023/12/10 05:13:08;;;;;;;12.20;2.37;;;;;;;-145.69;54.48;52289.91;5093006;28;20234;-81
2023/12/10 05:15:38;;;;;;;14.80;2.23;;;;;;;-145.69;54.63;52266.16;5093541;28;20263;-81
2023/12/10 05:18:08;;;;;;;14.03;1.90;;;;;;;-145.69;54.40;52270.13;5092831;28;20222;-81
2023/12/10 05:20:36;;;;;;;13.77;2.17;;;;;;;-145.69;54.59;52313.69;5093066;28;20225;-81
2023/12/10 05:23:03;;;;;;;23.23;2.40;;;;;;;-145.69;54.76;52289.91;5092965;28;20198;-81
2023/12/10 05:25:30;;;;;;;22.90;2.30;;;;;;;-145.69;54.46;52297.84;5093190;28;20194;-81
2023/12/10 05:27:57;;;;;;;14.20;2.00;;;;;;;-145.69;54.30;52270.13;5092424;28;20194;-81
2023/12/10 05:30:25;;;;;;;6.40;2.13;;;;;;;-145.69;54.31;52266.16;5092230;28;20190;-81
2023/12/10 05:32:52;;;;;;;18.40;2.63;;;;;;;-145.69;54.56;52287.94;5093113;28;20283;-81
2023/12/10 05:35:20;;;;;;;16.33;2.30;;;;;;;-145.69;54.33;52285.97;5093151;28;20193;-82
2023/12/10 05:37:46;;;;;;;16.00;2.03;;;;;;;-145.69;54.04;52307.75;5093155;28;20290;-82
2023/12/10 05:40:14;;;;;;;11.97;2.27;;;;;;;-145.69;53.44;52297.84;5092785;28;20228;-82
2023/12/10 05:42:41;;;;;;;17.33;1.97;;;;;;;-145.69;53.40;52289.91;5092662;28;20657;-82
2023/12/10 05:45:08;;;;;;;10.67;2.00;;;;;;;-145.69;53.11;52289.91;5093071;28;20198;-82
2023/12/10 05:47:34;;;;;;;14.43;1.77;;;;;;;-145.69;53.24;52301.81;5093110;28;20229;-82
2023/12/10 05:50:01;;;;;;;16.83;2.17;;;;;;;-145.69;53.25;52327.53;5092789;28;20194;-82
2023/12/10 05:52:28;;;;;;;12.90;2.23;;;;;;;-145.69;53.20;52278.03;5092535;28;20202;-82
2023/12/10 05:54:55;;;;;;;14.70;2.10;;;;;;;-145.69;53.27;52299.81;5092529;28;20201;-82
2023/12/10 05:57:21;;;;;;;17.43;2.63;;;;;;;-145.69;53.94;52293.88;5092661;28;20194;-82
2023/12/10 05:59:48;;;;;;;15.73;1.70;;;;;;;-145.69;54.21;52309.72;5092307;28;20208;-81
2023/12/10 06:02:14;;;;;;;17.90;1.83;;;;;;;-145.69;53.48;52321.59;5092604;28;20206;-81
2023/12/10 06:04:44;;;;;;;10.53;1.73;;;;;;;-145.69;53.47;52274.06;5092785;28;20193;-81
2023/12/10 06:07:11;;;;;;;8.47;1.87;;;;;;;-145.69;52.94;52285.97;5092489;28;20585;-81
2023/12/10 06:09:39;;;;;;;18.10;2.10;;;;;;;-145.69;52.78;52274.06;5093031;28;20220;-82
2023/12/10 06:12:06;;;;;;;9.10;1.63;;;;;;;-145.69;52.72;52278.03;5092833;28;20309;-82
2023/12/10 06:14:35;;;;;;;12.87;2.03;;;;;;;-145.69;52.44;52303.78;5093118;28;20241;-81
2023/12/10 06:17:01;;;;;;;12.03;1.60;;;;;;;-145.69;52.31;52293.88;5092841;28;20225;-81
2023/12/10 06:19:27;;;;;;;16.10;2.13;;;;;;;-145.69;52.08;52309.72;5092751;28;20198;-81
2023/12/10 06:21:54;;;;;;;12.57;2.00;;;;;;;-145.69;52.19;52321.59;5092137;28;20230;-80
2023/12/10 06:24:20;;;;;;;21.27;2.13;;;;;;;-145.69;51.73;52301.81;5092831;28;20202;-81
2023/12/10 06:26:48;;;;;;;16.20;2.17;;;;;;;-145.69;51.73;52301.81;5092739;28;20210;-81
2023/12/10 06:29:16;;;;;;;11.57;2.23;;;;;;;-145.69;51.90;52311.69;5072677;28;20210;-81
2023/12/10 06:31:45;;;;;;;16.40;2.80;;;;;;;-145.69;52.51;52276.06;5072350;28;20732;-81
2023/12/10 06:34:12;;;;;;;20.30;2.20;;;;;;;-145.69;52.09;52287.94;5089107;28;20202;-82
2023/12/10 06:36:38;;;;;;;10.03;1.77;;;;;;;-145.69;52.32;52341.41;5093279;28;20207;-81
2023/12/10 06:39:06;;;;;;;12.33;1.80;;;;;;;-145.69;52.39;52289.91;5092566;28;20202;-82
2023/12/10 06:41:33;;;;;;;13.60;1.80;;;;;;;-145.69;51.44;52282.00;5093764;28;20218;-81
2023/12/10 06:44:01;;;;;;;11.20;1.83;;;;;;;-145.69;51.71;52274.06;5096451;28;20206;-81
2023/12/10 06:46:29;;;;;;;12.27;2.20;;;;;;;-145.69;51.37;52297.84;5096184;28;20206;-82
2023/12/10 06:48:55;;;;;;;9.77;2.07;;;;;;;-145.69;51.15;52293.88;5096106;28;20206;-82
2023/12/10 06:51:22;;;;;;;10.50;1.80;;;;;;;-145.69;51.36;52278.03;5095972;28;20202;-81
2023/12/10 06:53:49;;;;;;;19.87;1.87;;;;;;;-145.69;51.04;52307.75;5078342;28;20206;-81
2023/12/10 06:56:18;;;;;;;10.03;1.83;;;;;;;-145.69;50.64;52305.75;5094259;28;20293;-81
2023/12/10 06:58:44;;;;;;;10.83;1.67;;;;;;;-145.69;51.20;52272.09;5096128;28;20632;-81
2023/12/10 07:01:15;;;;;;;11.57;2.67;;;;;;;-145.69;50.98;52266.16;5095315;28;20218;-81
2023/12/10 07:03:42;;;;;;;15.03;1.90;;;;;;;-145.69;50.66;52274.06;5095654;28;20209;-81
2023/12/10 07:06:11;;;;;;;9.03;1.93;;;;;;;-145.69;50.67;52293.88;5095796;28;20194;-82
2023/12/10 07:08:41;;;;;;;11.30;1.60;;;;;;;-145.69;50.30;52282.00;5096029;28;20198;-81
2023/12/10 07:11:10;;;;;;;16.47;2.63;;;;;;;-145.69;50.73;52291.91;5095305;28;20202;-81
2023/12/10 07:13:37;;;;;;;11.07;2.17;;;;;;;-145.69;50.98;52307.75;5095526;28;20230;-81
2023/12/10 07:16:06;;;;;;;12.07;2.17;;;;;;;-145.69;50.62;52289.91;5095028;28;20205;-80
2023/12/10 07:18:34;;;;;;;15.63;1.87;;;;;;;-145.69;50.14;52278.03;5095851;28;20276;-81
2023/12/10 07:21:02;;;;;;;7.10;2.13;;;;;;;-145.69;50.73;52295.84;5095253;28;20680;-80
2023/12/10 07:23:29;;;;;;;15.70;2.10;;;;;;;-145.69;50.42;52278.03;5095484;28;20676;-81
2023/12/10 07:25:55;;;;;;;15.80;2.33;;;;;;;-145.69;50.82;52274.06;5095370;28;20657;-81
2023/12/10 07:28:23;;;;;;;10.67;1.77;;;;;;;-145.69;50.82;52285.97;5095334;28;20200;-81
2023/12/10 07:30:49;;;;;;;7.87;1.47;;;;;;;-145.69;51.28;52276.06;5095455;28;20202;-81
2023/12/10 07:33:19;;;;;;;14.10;2.40;;;;;;;-145.69;50.56;52270.13;5094954;28;20565;-81
2023/12/10 07:35:46;;;;;;;10.50;2.00;;;;;;;-145.69;50.87;52285.97;5095263;28;20210;-81
2023/12/10 07:38:13;;;;;;;13.37;2.10;;;;;;;-145.69;50.28;52305.75;5095277;28;20202;-82
2023/12/10 07:40:40;;;;;;;13.40;2.63;;;;;;;-145.69;50.58;52295.84;5094990;28;20681;-82
2023/12/10 07:43:07;;;;;;;13.30;2.10;;;;;;;-145.69;50.37;52274.06;5095300;28;20209;-81
2023/12/10 07:45:34;;;;;;;20.97;2.27;;;;;;;-145.69;50.20;52297.84;5095244;28;20202;-81
2023/12/10 07:48:00;;;;;;;14.77;2.10;;;;;;;-145.69;50.46;52289.91;5094533;28;20198;-81
2023/12/10 07:50:27;;;;;;;15.67;2.63;;;;;;;-145.69;50.21;52282.00;5094687;28;20202;-81
2023/12/10 07:52:58;;;;;;;16.70;2.27;;;;;;;-145.69;50.62;52264.16;5093987;28;20210;-81
2023/12/10 07:55:25;;;;;;;10.13;2.00;;;;;;;-145.69;50.44;52268.13;5094352;28;20198;-82
2023/12/10 07:57:51;;;;;;;20.17;2.90;;;;;;;-145.69;50.36;52305.75;5094523;28;20195;-81
2023/12/10 08:00:18;;;;;;;15.07;1.83;;;;;;;-145.69;49.80;52274.06;5094575;28;20194;-82
2023/12/10 08:02:45;;;;;;;10.03;1.67;;;;;;;-145.69;50.46;52258.22;5094555;28;20206;-81
2023/12/10 08:05:11;;;;;;;16.53;1.80;;;;;;;-145.69;49.58;52270.13;5095214;28;20201;-81
2023/12/10 08:07:43;;;;;;;9.53;1.73;;;;;;;-145.69;49.21;52270.13;5094564;28;20198;-81
2023/12/10 08:10:11;;;;;;;10.20;1.63;;;;;;;-145.69;48.71;52262.19;5094530;28;20775;-80
2023/12/10 08:12:42;;;;;;;14.50;2.17;;;;;;;-145.69;49.45;52250.31;5094586;28;20194;-81
2023/12/10 08:15:12;;;;;;;17.97;2.03;;;;;;;-145.69;49.78;52262.19;5094335;28;20198;-81
2023/12/10 08:17:39;;;;;;;13.77;2.00;;;;;;;-145.69;49.36;52297.84;5094492;28;20198;-81
2023/12/10 08:20:07;;;;;;;12.93;2.07;;;;;;;-145.69;49.20;52280.00;5094428;28;20206;-81
2023/12/10 08:22:33;;;;;;;12.70;2.40;;;;;;;-145.69;49.76;52313.69;5093567;28;20692;-80
2023/12/10 08:25:00;;;;;;;15.07;2.03;;;;;;;-145.69;49.76;52270.13;5094172;28;20209;-81
2023/12/10 08:27:28;;;;;;;10.63;2.00;;;;;;;-145.69;50.57;52289.91;5093498;28;20209;-81
2023/12/10 08:29:55;;;;;;;17.77;2.50;;;;;;;-145.69;50.56;52323.59;5094505;28;20212;-81
2023/12/10 08:32:21;;;;;;;11.40;2.20;;;;;;;-145.69;50.41;52282.00;5093937;28;20229;-81
2023/12/10 08:34:48;;;;;;;11.60;2.27;;;;;;;-145.69;49.93;52291.91;5094257;28;20653;-81
2023/12/10 08:37:14;;;;;;;12.07;2.00;;;;;;;-145.69;50.09;52285.97;5094148;28;20202;-81
2023/12/10 08:39:43;;;;;;;10.80;2.00;;;;;;;-145.69;50.58;52250.31;5094120;28;20198;-81
2023/12/10 08:42:10;;;;;;;5.10;1.63;;;;;;;-145.69;50.69;52266.16;5094163;28;20236;-81
2023/12/10 08:44:37;;;;;;;14.07;2.53;;;;;;;-145.69;50.18;52260.22;5093950;28;20209;-82
2023/12/10 08:47:05;;;;;;;15.87;1.73;;;;;;;-145.69;50.24;52303.78;5094520;28;20284;-80
2023/12/10 08:49:31;;;;;;;10.30;1.97;;;;;;;-145.69;49.83;52266.16;5094849;28;20206;-80
2023/12/10 08:51:58;;;;;;;12.23;1.70;;;;;;;-145.69;49.39;52276.06;5095202;28;20288;-81
2023/12/10 08:54:24;;;;;;;13.33;2.03;;;;;;;-145.69;49.13;52266.16;5094995;28;20186;-81
2023/12/10 08:56:51;;;;;;;12.40;2.10;;;;;;;-145.69;48.46;52256.25;5093579;28;20561;-81
2023/12/10 08:59:17;;;;;;;12.00;2.17;;;;;;;-145.69;49.05;52246.34;5094267;28;20190;-80
2023/12/10 09:01:49;;;;;;;7.37;1.53;;;;;;;-145.69;49.31;52256.25;5094360;28;20222;-81
2023/12/10 09:04:16;;;;;;;16.23;1.83;;;;;;;-145.69;50.15;52256.25;5094250;28;20208;-81
2023/12/10 09:06:42;;;;;;;12.10;1.70;;;;;;;-145.69;50.28;52278.03;5094204;28;20194;-80
2023/12/10 09:09:09;;;;;;;12.40;1.77;;;;;;;-145.69;49.90;52283.97;5095073;28;20671;-80
2023/12/10 09:11:36;;;;;;;13.10;2.20;;;;;;;-145.69;50.13;52256.25;5094586;28;20541;-80
2023/12/10 09:14:02;;;;;;;8.57;1.70;;;;;;;-145.69;50.85;52272.09;5095341;28;20631;-80
2023/12/10 09:16:28;;;;;;;16.63;2.13;;;;;;;-145.69;50.06;52270.13;5094482;28;20205;-81
2023/12/10 09:18:56;;;;;;;13.80;2.73;;;;;;;-145.69;49.95;52285.97;5094123;28;20276;-81
2023/12/10 09:21:23;;;;;;;15.00;1.83;;;;;;;-145.69;50.13;52248.34;5093347;28;20299;-81
2023/12/10 09:23:50;;;;;;;14.53;2.73;;;;;;;-145.69;50.71;52238.44;5095676;28;20649;-80
2023/12/10 09:26:16;;;;;;;15.33;2.70;;;;;;;-145.69;50.79;52274.06;5094371;28;20233;-80
2023/12/10 09:28:43;;;;;;;14.23;2.00;;;;;;;-145.69;50.95;52244.38;5095923;28;20194;-80
2023/12/10 09:31:09;;;;;;;11.27;2.13;;;;;;;-145.69;50.42;52254.28;5093977;28;20207;-79
2023/12/10 09:33:36;;;;;;;13.80;1.83;;;;;;;-145.69;50.54;52258.22;5092381;28;20202;-81
2023/12/10 09:36:04;;;;;;;10.47;2.50;;;;;;;-145.69;49.96;52278.03;5095592;28;20561;-80
2023/12/10 09:38:30;;;;;;;12.43;2.50;;;;;;;-145.69;50.31;52270.13;5097621;28;20205;-80
2023/12/10 09:40:57;;;;;;;10.80;1.80;;;;;;;-145.69;50.62;52238.44;5103003;28;20212;-80
2023/12/10 09:43:24;;;;;;;14.80;2.37;;;;;;;-145.69;51.34;52276.06;5109580;28;20198;-81
2023/12/10 09:45:50;;;;;;;7.13;1.77;;;;;;;-145.69;50.38;52260.22;5095513;28;20195;-80
2023/12/10 09:48:18;;;;;;;13.10;1.47;;;;;;;-145.69;50.39;52262.19;5094216;28;20210;-80
2023/12/10 09:50:45;;;;;;;10.73;1.83;;;;;;;-145.69;49.87;52258.22;5094149;28;20590;-80
2023/12/10 09:53:13;;;;;;;17.20;2.27;;;;;;;-145.69;48.50;52254.28;5092088;28;20211;-81
2023/12/10 09:55:40;;;;;;;7.67;1.90;;;;;;;-145.69;48.46;52258.22;5094117;28;20204;-81
2023/12/10 09:58:06;;;;;;;8.60;1.47;;;;;;;-145.69;48.70;52244.38;5094267;28;20284;-81
2023/12/10 10:00:33;;;;;;;11.90;2.33;;;;;;;-145.69;48.36;52236.44;5095689;28;20186;-80
2023/12/10 10:03:03;;;;;;;8.93;1.57;;;;;;;-145.69;47.15;52246.34;5092666;28;20229;-79
2023/12/10 10:05:30;;;;;;;6.67;1.63;;;;;;;-145.69;47.71;52234.47;5096263;28;20200;-80
2023/12/10 10:07:56;;;;;;;10.90;1.40;;;;;;;-145.69;46.91;52238.44;5094474;28;20205;-80
2023/12/10 10:10:25;;;;;;;7.87;1.80;;;;;;;-145.69;47.04;52238.44;5094720;28;20202;-81
2023/12/10 10:12:53;;;;;;;16.10;1.97;;;;;;;-145.69;46.80;52230.50;5094052;28;20577;-79
2023/12/10 10:15:27;;;;;;;13.27;1.83;;;;;;;-145.69;45.86;52226.53;5092738;28;20201;-81
2023/12/10 10:17:54;;;;;;;12.97;1.90;;;;;;;-145.69;46.35;52206.75;5095160;28;20656;-81
2023/12/10 10:20:22;;;;;;;10.43;1.93;;;;;;;-145.69;46.38;52222.59;5096640;28;20243;-79
2023/12/10 10:22:49;;;;;;;11.40;1.70;;;;;;;-145.69;46.49;52222.59;5096782;28;20321;-80
2023/12/10 10:25:15;;;;;;;9.40;2.00;;;;;;;-145.69;47.55;52236.44;5097271;28;20623;-80
2023/12/10 10:27:43;;;;;;;9.00;1.87;;;;;;;-145.69;47.08;52258.22;5096327;28;20230;-81
2023/12/10 10:30:11;;;;;;;14.60;2.07;;;;;;;-145.69;47.84;52260.22;5095441;28;20264;-81
2023/12/10 10:32:38;;;;;;;9.37;1.70;;;;;;;-145.69;47.88;52254.28;5096369;28;20221;-81
2023/12/10 10:35:07;;;;;;;17.13;2.63;;;;;;;-145.69;48.42;52222.59;5096703;28;20205;-81
2023/12/10 10:37:35;;;;;;;10.77;2.30;;;;;;;-145.69;48.05;52274.06;5096322;28;20285;-80
2023/12/10 10:40:03;;;;;;;9.17;1.60;;;;;;;-145.69;47.91;52266.16;5095297;28;20718;-79
2023/12/10 10:42:29;;;;;;;9.00;1.57;;;;;;;-145.69;47.50;52234.47;5115366;28;20260;-80
2023/12/10 10:44:58;;;;;;;18.63;2.40;;;;;;;-145.69;47.49;52210.72;5116980;28;20211;-79
2023/12/10 10:47:27;;;;;;;9.93;1.93;;;;;;;-145.69;47.09;52208.72;5116969;28;20262;-80
2023/12/10 10:49:56;;;;;;;10.23;1.70;;;;;;;-145.69;47.04;52234.47;5116815;28;20194;-79
2023/12/10 10:52:25;;;;;;;9.23;2.10;;;;;;;-145.69;47.00;52230.50;5116638;28;20201;-79
2023/12/10 10:54:53;;;;;;;10.87;1.60;;;;;;;-145.69;47.74;52216.66;5116637;27;20652;-79
2023/12/10 10:57:28;;;;;;;10.67;2.27;;;;;;;-145.69;46.21;52238.44;5106943;27;20285;-79
2023/12/10 10:59:54;;;;;;;16.87;2.03;;;;;;;-145.69;46.05;52222.59;5096254;28;20250;-79
2023/12/10 11:02:23;;;;;;;8.63;1.60;;;;;;;-145.69;45.50;52222.59;5095715;28;20715;-79
2023/12/10 11:04:50;;;;;;;6.90;1.37;;;;;;;-145.69;45.24;52218.63;5078121;28;20202;-79
2023/12/10 11:07:20;;;;;;;10.23;2.10;;;;;;;-145.69;45.37;52268.13;5075408;28;20198;-79
2023/12/10 11:09:58;;;;;;;8.67;1.80;;;;;;;-145.69;45.27;52246.34;5075839;28;20199;-79
2023/12/10 11:12:44;;;;;;;10.23;1.90;;;;;;;-145.69;44.85;52222.59;5092992;28;20207;-79